Startpagina
METAR-TAF:

METAR-TAF

Vliegvelden :

Wellington, Nieuw-Zeeland

breedte: 41-20S, lengte: 174-48E, hoogte: 12 m

Actueel weer

Dit bericht is 26 minuten geleden gemaakt, om 21:30 UTC
Wind 11 kt uit het noorden
Temperatuur 12°C
Vochtigheid 71%
Druk 1008 hPa
Zicht 10 km of meer

METAR: NZWN 162130Z AUTO 01011KT 9999 NCD 12/07 Q1008 NOSIG

Tijdstip: 09:56 (21:56 UTC)

Verwachting

Dit bericht is 4 uur en het 51 minuten geleden gemaakt, om 17:05 UTC
Verwachting geldig van 16 om 18 UTC tot 17 om 18 UTC
Wind 15 kt uit het noordnoordwesten met uitschieters tot 25 kt
Zicht 10 km of meer
Weinig wolken op 2000 ft
Wijzigt naar
van 16 om 20 UTC tot 16 om 22 UTC
Wind 15 kt uit het noordnoordwesten
Wijzigt naar
van 17 om 06 UTC tot 17 om 08 UTC
Wind 5 kt uit het noordnoordoosten

TAF: NZWN 161705Z 1618/1718 34015G25KT 9999 FEW020 BECMG 1620/1622 34015KT BECMG 1706/1708 03005KT

Waarnemingen en weersverwachtingen van meer dan 4000 vliegvelden (METAR en TAF).

De beschikbare stations zijn de gele en rode punten op de kaart.

Ga met uw muis naar het station om de naam te zien.

Klik dan om waarnemingen en weersverwachtingen te zien.

kaart wijzigen: klik op de groene knoppen met een zwart kruis om in te zoomen, op de groene knop met een streepje om uit te zoomen of op de groene pijlen voor aangrenzende kaarten.


METAR-TAF: